sensor_id;sensor_type;location;lat;lon;timestamp;P1;durP1;ratioP1;P2;durP2;ratioP2
19434;SDS011;9853;50.848;4.108;2023-03-01T17:35:42;12.60;;;6.63;;
19434;SDS011;9853;50.848;4.108;2023-03-01T17:37:45;10.00;;;6.87;;
19434;SDS011;9853;50.848;4.108;2023-03-01T17:39:46;11.93;;;6.87;;
19434;SDS011;9853;50.848;4.108;2023-03-01T17:41:47;12.90;;;6.97;;
19434;SDS011;9853;50.848;4.108;2023-03-01T17:43:47;13.13;;;6.97;;
19434;SDS011;9853;50.848;4.108;2023-03-01T17:45:48;11.63;;;6.93;;
19434;SDS011;9853;50.848;4.108;2023-03-01T17:47:51;13.17;;;6.87;;
19434;SDS011;9853;50.848;4.108;2023-03-01T17:49:52;16.63;;;7.83;;
19434;SDS011;9853;50.848;4.108;2023-03-01T17:51:54;14.40;;;7.90;;
19434;SDS011;9853;50.848;4.108;2023-03-01T17:53:55;16.50;;;8.13;;
19434;SDS011;9853;50.848;4.108;2023-03-01T17:55:59;16.80;;;7.67;;
19434;SDS011;9853;50.848;4.108;2023-03-01T17:58:02;15.63;;;7.60;;
19434;SDS011;9853;50.848;4.108;2023-03-01T18:00:04;12.43;;;7.90;;
19434;SDS011;9853;50.848;4.108;2023-03-01T18:02:11;11.67;;;6.80;;
19434;SDS011;9853;50.848;4.108;2023-03-01T18:04:12;18.57;;;7.20;;
19434;SDS011;9853;50.848;4.108;2023-03-01T18:06:17;13.80;;;7.60;;
19434;SDS011;9853;50.848;4.108;2023-03-01T18:08:22;12.83;;;7.00;;
19434;SDS011;9853;50.848;4.108;2023-03-01T18:10:23;14.50;;;7.27;;
19434;SDS011;9853;50.848;4.108;2023-03-01T18:12:24;11.50;;;6.40;;
19434;SDS011;9853;50.848;4.108;2023-03-01T18:14:24;12.53;;;6.80;;
19434;SDS011;9853;50.848;4.108;2023-03-01T18:16:28;13.77;;;7.00;;
19434;SDS011;9853;50.848;4.108;2023-03-01T18:18:30;15.57;;;8.23;;
19434;SDS011;9853;50.848;4.108;2023-03-01T18:20:31;18.70;;;8.00;;
19434;SDS011;9853;50.848;4.108;2023-03-01T18:22:33;13.50;;;7.90;;
19434;SDS011;9853;50.848;4.108;2023-03-01T18:24:34;15.87;;;8.03;;
19434;SDS011;9853;50.848;4.108;2023-03-01T18:26:36;15.77;;;8.37;;
19434;SDS011;9853;50.848;4.108;2023-03-01T18:28:37;14.60;;;7.60;;
19434;SDS011;9853;50.848;4.108;2023-03-01T18:30:39;19.77;;;8.17;;
19434;SDS011;9853;50.848;4.108;2023-03-01T18:32:39;14.53;;;8.10;;
19434;SDS011;9853;50.848;4.108;2023-03-01T18:34:40;15.07;;;7.77;;
19434;SDS011;9853;50.848;4.108;2023-03-01T18:36:41;17.33;;;8.70;;
19434;SDS011;9853;50.848;4.108;2023-03-01T18:38:42;19.37;;;8.17;;
19434;SDS011;9853;50.848;4.108;2023-03-01T18:40:45;15.17;;;7.33;;
19434;SDS011;9853;50.848;4.108;2023-03-01T18:42:47;20.23;;;8.33;;
19434;SDS011;9853;50.848;4.108;2023-03-01T18:44:48;14.23;;;8.30;;
19434;SDS011;9853;50.848;4.108;2023-03-01T18:46:48;14.60;;;8.37;;
19434;SDS011;9853;50.848;4.108;2023-03-01T18:48:50;22.17;;;8.77;;
19434;SDS011;9853;50.848;4.108;2023-03-01T18:50:53;17.07;;;8.43;;
19434;SDS011;9853;50.848;4.108;2023-03-01T18:52:56;21.33;;;8.57;;
19434;SDS011;9853;50.848;4.108;2023-03-01T18:54:57;14.77;;;8.93;;
19434;SDS011;9853;50.848;4.108;2023-03-01T18:56:58;14.67;;;8.60;;
19434;SDS011;9853;50.848;4.108;2023-03-01T18:58:59;17.13;;;8.20;;
19434;SDS011;9853;50.848;4.108;2023-03-01T19:01:00;15.33;;;8.27;;
19434;SDS011;9853;50.848;4.108;2023-03-01T19:03:03;21.03;;;9.23;;
19434;SDS011;9853;50.848;4.108;2023-03-01T19:05:04;16.10;;;8.40;;
19434;SDS011;9853;50.848;4.108;2023-03-01T19:07:05;19.43;;;8.00;;
19434;SDS011;9853;50.848;4.108;2023-03-01T19:09:07;17.83;;;8.37;;
19434;SDS011;9853;50.848;4.108;2023-03-01T19:11:08;15.23;;;8.23;;
19434;SDS011;9853;50.848;4.108;2023-03-01T19:13:10;14.00;;;7.90;;
19434;SDS011;9853;50.848;4.108;2023-03-01T19:15:11;16.80;;;8.53;;
19434;SDS011;9853;50.848;4.108;2023-03-01T19:17:12;13.13;;;8.10;;
19434;SDS011;9853;50.848;4.108;2023-03-01T19:19:13;18.80;;;8.47;;
19434;SDS011;9853;50.848;4.108;2023-03-01T19:21:14;15.80;;;9.00;;
19434;SDS011;9853;50.848;4.108;2023-03-01T19:23:20;15.93;;;8.67;;
19434;SDS011;9853;50.848;4.108;2023-03-01T19:25:21;16.30;;;9.17;;
19434;SDS011;9853;50.848;4.108;2023-03-01T19:27:22;16.27;;;9.07;;
19434;SDS011;9853;50.848;4.108;2023-03-01T19:29:23;21.20;;;9.07;;
19434;SDS011;9853;50.848;4.108;2023-03-01T19:31:25;17.37;;;8.53;;
19434;SDS011;9853;50.848;4.108;2023-03-01T19:33:28;24.23;;;9.20;;
19434;SDS011;9853;50.848;4.108;2023-03-01T19:35:32;15.13;;;8.80;;
19434;SDS011;9853;50.848;4.108;2023-03-01T19:37:33;22.33;;;8.33;;
19434;SDS011;9853;50.848;4.108;2023-03-01T19:39:34;17.53;;;9.10;;
19434;SDS011;9853;50.848;4.108;2023-03-01T19:41:35;16.37;;;9.47;;
19434;SDS011;9853;50.848;4.108;2023-03-01T19:43:36;19.33;;;9.43;;
19434;SDS011;9853;50.848;4.108;2023-03-01T19:45:37;15.07;;;9.30;;
19434;SDS011;9853;50.848;4.108;2023-03-01T19:47:38;17.67;;;8.97;;
19434;SDS011;9853;50.848;4.108;2023-03-01T19:49:39;15.77;;;9.23;;
19434;SDS011;9853;50.848;4.108;2023-03-01T19:51:41;15.63;;;9.20;;
19434;SDS011;9853;50.848;4.108;2023-03-01T19:53:42;19.67;;;9.43;;
19434;SDS011;9853;50.848;4.108;2023-03-01T19:55:43;22.63;;;9.90;;
19434;SDS011;9853;50.848;4.108;2023-03-01T19:57:43;17.00;;;8.47;;
19434;SDS011;9853;50.848;4.108;2023-03-01T19:59:44;18.77;;;9.00;;
19434;SDS011;9853;50.848;4.108;2023-03-01T20:01:45;17.80;;;9.67;;
19434;SDS011;9853;50.848;4.108;2023-03-01T20:03:46;17.80;;;10.10;;
19434;SDS011;9853;50.848;4.108;2023-03-01T20:05:47;17.47;;;9.30;;
19434;SDS011;9853;50.848;4.108;2023-03-01T20:07:48;16.60;;;9.40;;
19434;SDS011;9853;50.848;4.108;2023-03-01T20:09:50;20.93;;;9.17;;
19434;SDS011;9853;50.848;4.108;2023-03-01T20:11:51;19.87;;;9.87;;
19434;SDS011;9853;50.848;4.108;2023-03-01T20:13:51;23.57;;;10.60;;
19434;SDS011;9853;50.848;4.108;2023-03-01T20:15:54;19.20;;;10.37;;
19434;SDS011;9853;50.848;4.108;2023-03-01T20:17:55;19.40;;;9.40;;
19434;SDS011;9853;50.848;4.108;2023-03-01T20:19:55;15.70;;;9.00;;
19434;SDS011;9853;50.848;4.108;2023-03-01T20:21:56;18.43;;;9.70;;
19434;SDS011;9853;50.848;4.108;2023-03-01T20:23:57;17.97;;;9.03;;
19434;SDS011;9853;50.848;4.108;2023-03-01T20:26:06;17.43;;;9.83;;
19434;SDS011;9853;50.848;4.108;2023-03-01T20:28:28;15.47;;;9.07;;
19434;SDS011;9853;50.848;4.108;2023-03-01T20:30:29;19.70;;;10.20;;
19434;SDS011;9853;50.848;4.108;2023-03-01T20:32:31;23.53;;;11.47;;
19434;SDS011;9853;50.848;4.108;2023-03-01T20:34:32;18.23;;;10.03;;
19434;SDS011;9853;50.848;4.108;2023-03-01T20:36:35;18.77;;;10.40;;
19434;SDS011;9853;50.848;4.108;2023-03-01T20:38:37;16.53;;;9.73;;
19434;SDS011;9853;50.848;4.108;2023-03-01T20:40:38;20.60;;;9.87;;
19434;SDS011;9853;50.848;4.108;2023-03-01T20:42:39;16.50;;;10.73;;
19434;SDS011;9853;50.848;4.108;2023-03-01T20:44:40;19.50;;;10.70;;
19434;SDS011;9853;50.848;4.108;2023-03-01T20:46:43;21.13;;;10.90;;
19434;SDS011;9853;50.848;4.108;2023-03-01T20:48:44;20.30;;;11.23;;
19434;SDS011;9853;50.848;4.108;2023-03-01T20:50:45;16.57;;;9.83;;
19434;SDS011;9853;50.848;4.108;2023-03-01T20:52:46;25.37;;;10.77;;
19434;SDS011;9853;50.848;4.108;2023-03-01T20:54:46;18.30;;;10.23;;
19434;SDS011;9853;50.848;4.108;2023-03-01T20:56:47;18.57;;;10.20;;
19434;SDS011;9853;50.848;4.108;2023-03-01T20:58:48;20.87;;;10.70;;
19434;SDS011;9853;50.848;4.108;2023-03-01T21:00:49;18.07;;;10.83;;
19434;SDS011;9853;50.848;4.108;2023-03-01T21:02:52;22.20;;;10.90;;
19434;SDS011;9853;50.848;4.108;2023-03-01T21:04:53;22.83;;;11.30;;
19434;SDS011;9853;50.848;4.108;2023-03-01T21:06:55;17.00;;;10.33;;
19434;SDS011;9853;50.848;4.108;2023-03-01T21:08:56;19.07;;;11.10;;
19434;SDS011;9853;50.848;4.108;2023-03-01T21:10:56;18.20;;;10.53;;
19434;SDS011;9853;50.848;4.108;2023-03-01T21:12:57;18.90;;;10.87;;
19434;SDS011;9853;50.848;4.108;2023-03-01T21:15:01;16.90;;;9.77;;
19434;SDS011;9853;50.848;4.108;2023-03-01T21:17:05;21.00;;;11.10;;
19434;SDS011;9853;50.848;4.108;2023-03-01T21:19:10;18.97;;;11.00;;
19434;SDS011;9853;50.848;4.108;2023-03-01T21:21:13;18.23;;;10.70;;
19434;SDS011;9853;50.848;4.108;2023-03-01T21:23:15;20.40;;;11.17;;
19434;SDS011;9853;50.848;4.108;2023-03-01T21:25:18;21.73;;;11.50;;
19434;SDS011;9853;50.848;4.108;2023-03-01T21:27:19;20.13;;;10.80;;
19434;SDS011;9853;50.848;4.108;2023-03-01T21:29:20;22.20;;;11.83;;
19434;SDS011;9853;50.848;4.108;2023-03-01T21:31:22;23.83;;;11.30;;
19434;SDS011;9853;50.848;4.108;2023-03-01T21:33:24;25.30;;;11.83;;
19434;SDS011;9853;50.848;4.108;2023-03-01T21:35:25;24.47;;;10.77;;
19434;SDS011;9853;50.848;4.108;2023-03-01T21:37:25;17.83;;;10.93;;
19434;SDS011;9853;50.848;4.108;2023-03-01T21:39:28;21.60;;;10.60;;
19434;SDS011;9853;50.848;4.108;2023-03-01T21:41:30;23.30;;;11.60;;
19434;SDS011;9853;50.848;4.108;2023-03-01T21:43:33;24.63;;;11.70;;
19434;SDS011;9853;50.848;4.108;2023-03-01T21:45:34;17.77;;;10.60;;
19434;SDS011;9853;50.848;4.108;2023-03-01T21:47:35;20.87;;;12.33;;
19434;SDS011;9853;50.848;4.108;2023-03-01T21:49:37;21.07;;;10.33;;
19434;SDS011;9853;50.848;4.108;2023-03-01T21:51:38;23.17;;;11.43;;
19434;SDS011;9853;50.848;4.108;2023-03-01T21:53:39;24.97;;;11.63;;
19434;SDS011;9853;50.848;4.108;2023-03-01T21:55:45;18.33;;;11.03;;
19434;SDS011;9853;50.848;4.108;2023-03-01T21:57:46;20.33;;;10.93;;
19434;SDS011;9853;50.848;4.108;2023-03-01T21:59:47;18.73;;;11.27;;
19434;SDS011;9853;50.848;4.108;2023-03-01T22:01:49;21.33;;;11.10;;
19434;SDS011;9853;50.848;4.108;2023-03-01T22:03:50;30.07;;;11.63;;
19434;SDS011;9853;50.848;4.108;2023-03-01T22:05:58;19.93;;;10.60;;
19434;SDS011;9853;50.848;4.108;2023-03-01T22:08:00;23.83;;;11.60;;
19434;SDS011;9853;50.848;4.108;2023-03-01T22:10:02;20.43;;;10.73;;
19434;SDS011;9853;50.848;4.108;2023-03-01T22:12:03;22.03;;;10.57;;
19434;SDS011;9853;50.848;4.108;2023-03-01T22:14:05;19.80;;;11.17;;
19434;SDS011;9853;50.848;4.108;2023-03-01T22:16:06;19.33;;;10.83;;
19434;SDS011;9853;50.848;4.108;2023-03-01T22:18:08;18.83;;;10.80;;
19434;SDS011;9853;50.848;4.108;2023-03-01T22:20:09;26.03;;;11.63;;
19434;SDS011;9853;50.848;4.108;2023-03-01T22:22:10;19.57;;;11.13;;
19434;SDS011;9853;50.848;4.108;2023-03-01T22:24:11;19.80;;;10.60;;
19434;SDS011;9853;50.848;4.108;2023-03-01T22:26:27;23.13;;;11.43;;
19434;SDS011;9853;50.848;4.108;2023-03-01T22:28:47;21.30;;;11.50;;
19434;SDS011;9853;50.848;4.108;2023-03-01T22:30:48;20.17;;;10.33;;
19434;SDS011;9853;50.848;4.108;2023-03-01T22:32:49;23.40;;;10.87;;
19434;SDS011;9853;50.848;4.108;2023-03-01T22:34:50;19.20;;;11.23;;
19434;SDS011;9853;50.848;4.108;2023-03-01T22:36:51;19.90;;;11.20;;
19434;SDS011;9853;50.848;4.108;2023-03-01T22:38:51;29.13;;;10.77;;
19434;SDS011;9853;50.848;4.108;2023-03-01T22:40:59;21.23;;;11.23;;
19434;SDS011;9853;50.848;4.108;2023-03-01T22:43:02;21.30;;;11.10;;
19434;SDS011;9853;50.848;4.108;2023-03-01T22:45:02;21.23;;;10.83;;
19434;SDS011;9853;50.848;4.108;2023-03-01T22:47:04;23.80;;;11.60;;
19434;SDS011;9853;50.848;4.108;2023-03-01T22:49:04;19.03;;;11.00;;
19434;SDS011;9853;50.848;4.108;2023-03-01T22:51:05;21.17;;;11.27;;
19434;SDS011;9853;50.848;4.108;2023-03-01T22:53:06;24.80;;;11.40;;
19434;SDS011;9853;50.848;4.108;2023-03-01T22:55:07;17.40;;;9.83;;
19434;SDS011;9853;50.848;4.108;2023-03-01T22:57:08;20.33;;;9.97;;
19434;SDS011;9853;50.848;4.108;2023-03-01T22:59:10;22.97;;;11.10;;
19434;SDS011;9853;50.848;4.108;2023-03-01T23:01:16;17.33;;;10.47;;
19434;SDS011;9853;50.848;4.108;2023-03-01T23:03:18;18.87;;;9.80;;
19434;SDS011;9853;50.848;4.108;2023-03-01T23:05:19;19.40;;;10.07;;
19434;SDS011;9853;50.848;4.108;2023-03-01T23:07:20;22.80;;;10.77;;
19434;SDS011;9853;50.848;4.108;2023-03-01T23:09:30;19.77;;;10.00;;
19434;SDS011;9853;50.848;4.108;2023-03-01T23:11:33;18.57;;;10.07;;
19434;SDS011;9853;50.848;4.108;2023-03-01T23:13:34;21.33;;;10.50;;
19434;SDS011;9853;50.848;4.108;2023-03-01T23:15:35;19.93;;;9.57;;
19434;SDS011;9853;50.848;4.108;2023-03-01T23:17:35;26.50;;;10.03;;
19434;SDS011;9853;50.848;4.108;2023-03-01T23:19:36;18.40;;;9.83;;
19434;SDS011;9853;50.848;4.108;2023-03-01T23:21:38;18.93;;;9.83;;
19434;SDS011;9853;50.848;4.108;2023-03-01T23:23:43;20.17;;;9.73;;
19434;SDS011;9853;50.848;4.108;2023-03-01T23:25:52;24.63;;;10.07;;
19434;SDS011;9853;50.848;4.108;2023-03-01T23:27:57;23.27;;;10.60;;
19434;SDS011;9853;50.848;4.108;2023-03-01T23:29:58;16.33;;;9.87;;
19434;SDS011;9853;50.848;4.108;2023-03-01T23:31:59;23.33;;;11.27;;
19434;SDS011;9853;50.848;4.108;2023-03-01T23:34:00;21.47;;;11.20;;
19434;SDS011;9853;50.848;4.108;2023-03-01T23:36:00;19.07;;;9.97;;
19434;SDS011;9853;50.848;4.108;2023-03-01T23:38:01;25.47;;;10.03;;
19434;SDS011;9853;50.848;4.108;2023-03-01T23:40:03;20.90;;;9.80;;
19434;SDS011;9853;50.848;4.108;2023-03-01T23:42:05;20.40;;;11.37;;
19434;SDS011;9853;50.848;4.108;2023-03-01T23:44:07;22.97;;;11.37;;
19434;SDS011;9853;50.848;4.108;2023-03-01T23:46:12;21.00;;;10.73;;
19434;SDS011;9853;50.848;4.108;2023-03-01T23:48:14;23.77;;;11.07;;
19434;SDS011;9853;50.848;4.108;2023-03-01T23:50:17;17.93;;;10.93;;
19434;SDS011;9853;50.848;4.108;2023-03-01T23:52:18;20.13;;;10.67;;
19434;SDS011;9853;50.848;4.108;2023-03-01T23:54:21;23.47;;;11.23;;
19434;SDS011;9853;50.848;4.108;2023-03-01T23:56:33;22.23;;;10.77;;
19434;SDS011;9853;50.848;4.108;2023-03-01T23:58:37;21.17;;;10.90;;
